Stateline, NV (89449)

10:03 PM PST on December 12, 2017 (GMT -0800)
MKAHNV | | Change Station

Elev 6304 ft 38.97 °N, 119.93 °W | Updated 209 days ago

Clear
Clear
39.0 °F
Feels Like 33 °F
N
9.0
Wind Variable Wind from SSW

Today
High -- | Low -- °F
--% Chance of Precip.
Yesterday
High -- | Low -- °F
Precip. -- in
Pressure 30.45 in
Visibility 10.0 miles
Clouds Clear
Windchill 33 °F
Dew Point 33.0 °F
Humidity 80%
Rainfall in
Snow Depth Not available.
7:09 AM 4:37 PM
Waning Crescent, 22% visible
METAR KTVL 130553Z AUTO 21003KT 10SM CLR M04/M07 A3040 RMK AO2 SLP311 I6000 T10441067 10028 21050 58003
Pressure 30.45 in
Visibility 10.0 miles
Clouds Clear
Windchill 33 °F
Dew Point 33.0 °F
Humidity 80%
Rainfall in
Snow Depth Not available.
7:09 AM 4:37 PM
Waning Crescent, 22% visible
METAR KTVL 130553Z AUTO 21003KT 10SM CLR M04/M07 A3040 RMK AO2 SLP311 I6000 T10441067 10028 21050 58003

Get Severe Weather Alerts

Thanks for signing up!

Be on the lookout for a verification email in your inbox.

You'll start receiving the daily forecast at 6 AM.

×

10-Day Weather Forecast

Almanac

Astronomy

Dec. 12, 2017 Rise Set
Actual Time
Civil Twilight
Nautical Twilight
Astronomical Twilight
Moon
Length of Visible Light
Length of Day
Tomorrow will be .
, % of the Moon is Illuminated

Today's Extremes

State Highs State Lows

Community

WunderPhotos

Category 6

Welcome to Category 6. This is the collective home for Weather Underground's featured writeups by Dr. Jeff Masters (right), Bob Henson (left), Chris Burt, and other regular contributors.

Nearby

Air Quality

  Air Quality AQ Index Pollutant
Not available.

Snow Depth

Station Depth Elevation

Earthquake Activity

City Distance Mag. Time & Date
Minimum magnitude displayed is 2.5.

Coastal Water Temperatures

Place Temperature

Stations

Nearby Weather Stations

Station Location Temp. Windchill Dew Point Humidity Wind Precip. Elev Updated Type
                   

Watches & Warnings

There are currently no watches in effect.